createdAt,value
2018-08-09T05:02:19.083Z,24.48
2018-08-09T05:07:22.418Z,24.64
2018-08-09T05:12:25.751Z,24.79
2018-08-09T05:17:29.087Z,24.81
2018-08-09T05:22:32.417Z,24.71
2018-08-09T05:27:35.748Z,24.74
2018-08-09T05:32:39.079Z,24.81
2018-08-09T05:37:42.405Z,24.97
2018-08-09T05:42:45.882Z,25.11
2018-08-09T05:47:49.204Z,25.15
2018-08-09T05:52:52.549Z,25.27
2018-08-09T05:57:55.879Z,25.32
2018-08-09T06:02:59.967Z,25.40
2018-08-09T06:08:03.293Z,25.56
2018-08-09T06:13:06.618Z,25.73
2018-08-09T06:18:09.935Z,25.86
2018-08-09T06:23:14.034Z,25.90
2018-08-09T06:28:17.366Z,25.89
2018-08-09T06:33:20.709Z,25.92
2018-08-09T06:38:24.815Z,26.01
2018-08-09T06:43:28.143Z,26.08
2018-08-09T06:48:32.411Z,26.16
2018-08-09T06:53:35.777Z,26.18
2018-08-09T06:58:39.866Z,26.20
2018-08-09T07:03:43.195Z,26.25
2018-08-09T07:08:46.542Z,26.40
2018-08-09T07:13:50.810Z,26.44
2018-08-09T07:18:54.167Z,26.47
2018-08-09T07:23:57.617Z,26.57
2018-08-09T07:29:00.946Z,26.65
2018-08-09T07:34:04.275Z,26.75
2018-08-09T07:39:07.606Z,26.86
2018-08-09T07:44:10.934Z,26.96
2018-08-09T07:49:14.274Z,27.11
2018-08-09T07:54:18.404Z,27.22
2018-08-09T07:59:21.718Z,27.33
2018-08-09T08:04:25.817Z,27.49
2018-08-09T08:09:29.150Z,27.59
2018-08-09T08:14:33.236Z,27.54
2018-08-09T08:19:36.564Z,27.69
2018-08-09T08:24:42.938Z,27.79
2018-08-09T08:29:46.270Z,27.91
2018-08-09T08:34:49.607Z,28.02
2018-08-09T08:39:53.702Z,28.15
2018-08-09T08:44:57.026Z,28.39
2018-08-09T08:50:00.355Z,28.51
2018-08-09T08:55:04.497Z,28.62
2018-08-09T09:00:07.797Z,28.67
2018-08-09T09:05:11.969Z,28.73
2018-08-09T09:10:15.211Z,28.77
2018-08-09T09:15:18.540Z,28.80
2018-08-09T09:20:22.630Z,28.89
2018-08-09T09:25:25.959Z,29.04
2018-08-09T09:30:29.304Z,29.21
2018-08-09T09:35:33.394Z,29.29
2018-08-09T09:40:36.722Z,29.39
2018-08-09T09:45:40.061Z,29.47
2018-08-09T09:50:43.389Z,29.57
2018-08-09T09:55:47.483Z,29.65
2018-08-09T10:00:50.811Z,29.64
2018-08-09T10:05:54.898Z,29.79
2018-08-09T10:10:58.224Z,29.86
2018-08-09T10:16:01.580Z,29.94
2018-08-09T10:21:05.674Z,29.96
2018-08-09T10:26:09.015Z,30.12
2018-08-09T10:31:13.098Z,30.25
2018-08-09T10:36:16.422Z,30.31
2018-08-09T10:41:19.743Z,30.36
2018-08-09T10:46:23.091Z,30.18
2018-08-09T10:51:26.445Z,30.39
2018-08-09T10:56:29.771Z,30.53
2018-08-09T11:01:33.098Z,30.69
2018-08-09T11:06:36.431Z,30.81
2018-08-09T11:11:39.757Z,30.99
2018-08-09T11:16:43.846Z,31.09
2018-08-09T11:21:47.167Z,31.27
2018-08-09T11:26:50.503Z,31.42
2018-08-09T11:31:54.590Z,31.53
2018-08-09T11:36:57.918Z,31.49
2018-08-09T11:42:01.259Z,31.61
2018-08-09T11:47:05.353Z,31.67
2018-08-09T11:52:08.690Z,31.68
2018-08-09T11:57:12.805Z,32.17
2018-08-09T12:02:16.158Z,32.59
2018-08-09T12:07:19.487Z,32.84
2018-08-09T12:12:22.813Z,33.18
2018-08-09T12:17:26.152Z,33.51
2018-08-09T12:22:29.494Z,33.91
2018-08-09T12:27:33.587Z,34.14
2018-08-09T12:32:36.940Z,34.44
2018-08-09T12:37:40.278Z,33.86
2018-08-09T12:42:43.607Z,34.26
2018-08-09T12:47:46.933Z,34.16
2018-08-09T12:52:50.258Z,34.39
2018-08-09T12:57:53.592Z,34.64
2018-08-09T13:02:57.684Z,35.04
2018-08-09T13:08:01.021Z,34.98
2018-08-09T13:13:04.347Z,35.23
2018-08-09T13:18:07.684Z,35.42
2018-08-09T13:23:11.007Z,35.62
2018-08-09T13:28:14.338Z,35.71
2018-08-09T13:33:17.666Z,35.86
2018-08-09T13:38:20.994Z,35.74
2018-08-09T13:43:24.377Z,36.37
2018-08-09T13:48:27.681Z,35.61
2018-08-09T13:53:31.006Z,35.74
2018-08-09T13:58:34.379Z,35.36
2018-08-09T14:03:38.457Z,35.16
2018-08-09T14:08:41.788Z,36.01
2018-08-09T14:13:45.111Z,35.87
2018-08-09T14:18:49.197Z,36.20
2018-08-09T14:23:52.531Z,36.71
2018-08-09T14:28:55.861Z,36.86
2018-08-09T14:33:59.189Z,36.57
2018-08-09T14:39:03.282Z,36.93
2018-08-09T14:44:06.608Z,37.49
2018-08-09T14:49:09.934Z,36.64
2018-08-09T14:54:13.262Z,37.19
2018-08-09T14:59:16.593Z,37.40
2018-08-09T15:04:19.924Z,37.75
2018-08-09T15:09:23.259Z,37.13
2018-08-09T15:14:26.596Z,38.60
2018-08-09T15:19:30.696Z,39.26
2018-08-09T15:24:34.045Z,39.29
2018-08-09T15:29:37.369Z,38.73
2018-08-09T15:34:40.698Z,39.89
2018-08-09T15:39:44.023Z,40.75
2018-08-09T15:44:47.349Z,41.19
2018-08-09T15:49:50.682Z,40.34
2018-08-09T15:54:54.039Z,40.86
2018-08-09T15:59:57.367Z,41.63
2018-08-09T16:05:00.710Z,40.57
2018-08-09T16:10:04.100Z,38.99
2018-08-09T16:15:08.166Z,38.93
2018-08-09T16:20:11.506Z,38.19
2018-08-09T16:25:14.839Z,37.90
2018-08-09T16:30:18.748Z,37.98
2018-08-09T16:35:22.445Z,37.70
2018-08-09T16:40:26.057Z,37.77
2018-08-09T16:45:40.477Z,37.74
2018-08-09T16:50:44.248Z,39.55
2018-08-09T16:55:57.517Z,40.20
2018-08-09T17:01:01.274Z,39.65
2018-08-09T17:06:05.093Z,38.53
2018-08-09T17:11:08.764Z,37.20
2018-08-09T17:16:22.486Z,36.70
2018-08-09T17:21:26.189Z,31.83
2018-08-09T17:26:43.495Z,30.72
2018-08-09T17:31:47.170Z,30.11
2018-08-09T17:36:50.851Z,29.83
2018-08-09T17:41:54.792Z,29.36
2018-08-09T17:46:58.366Z,29.55
2018-08-09T17:52:02.837Z,29.50
2018-08-09T17:57:06.495Z,28.97
2018-08-09T18:02:10.957Z,28.90
2018-08-09T18:07:14.601Z,28.56
2018-08-09T18:12:18.300Z,27.41
2018-08-09T18:17:21.981Z,27.75
2018-08-09T18:22:26.366Z,28.03
2018-08-09T18:27:30.026Z,27.81
2018-08-09T18:32:34.631Z,28.48
2018-08-09T18:37:38.956Z,28.75
2018-08-09T18:42:43.016Z,29.03
2018-08-09T18:47:46.737Z,29.40
2018-08-09T18:52:50.486Z,29.44
2018-08-09T18:57:54.292Z,29.47
2018-08-09T19:02:58.135Z,29.00
2018-08-09T19:08:01.944Z,28.57
2018-08-09T19:13:05.657Z,28.39
2018-08-09T19:18:09.453Z,28.29
2018-08-09T19:23:13.098Z,28.52
2018-08-09T19:28:16.925Z,27.59
2018-08-09T19:33:20.651Z,26.73
2018-08-09T19:38:25.138Z,26.35
2018-08-09T19:43:28.940Z,26.04
2018-08-09T19:48:33.389Z,25.64
2018-08-09T19:53:37.394Z,25.49
2018-08-09T19:58:41.091Z,25.43
2018-08-09T20:03:44.719Z,25.56
2018-08-09T20:08:48.366Z,25.52
2018-08-09T20:13:52.018Z,25.62
2018-08-09T20:18:55.472Z,25.54
2018-08-09T20:23:59.116Z,25.62
2018-08-09T20:29:02.756Z,25.48
2018-08-09T20:34:06.193Z,24.80
2018-08-09T20:39:10.458Z,24.16
2018-08-09T20:44:39.217Z,23.93
2018-08-09T20:49:43.324Z,23.74
2018-08-09T20:54:46.654Z,23.87
2018-08-09T20:59:49.977Z,24.08
2018-08-09T21:04:53.382Z,24.09
2018-08-09T21:09:56.711Z,24.12
2018-08-09T21:15:00.060Z,24.37
2018-08-09T21:20:03.401Z,24.31
2018-08-09T21:25:06.719Z,24.39
2018-08-09T21:30:10.050Z,24.31
2018-08-09T21:35:13.370Z,24.31
2018-08-09T21:40:16.698Z,24.30
2018-08-09T21:45:20.796Z,24.31
2018-08-09T21:50:24.126Z,24.22
2018-08-09T21:55:27.451Z,24.20
2018-08-09T22:00:31.552Z,24.08
2018-08-09T22:05:35.650Z,23.98
2018-08-09T22:16:20.079Z,23.80
2018-08-09T22:21:28.999Z,23.59
2018-08-09T22:26:52.141Z,23.54
